sensor_id;sensor_type;location;lat;lon;timestamp;P1;durP1;ratioP1;P2;durP2;ratioP2
8482;SDS011;4278;42.668;23.312;2022-09-27T00:00:44;11.00;;;7.37;;
8482;SDS011;4278;42.668;23.312;2022-09-27T00:03:12;9.97;;;6.90;;
8482;SDS011;4278;42.668;23.312;2022-09-27T00:05:39;12.13;;;7.50;;
8482;SDS011;4278;42.668;23.312;2022-09-27T00:08:06;9.03;;;7.03;;
8482;SDS011;4278;42.668;23.312;2022-09-27T00:10:33;9.50;;;6.80;;
8482;SDS011;4278;42.668;23.312;2022-09-27T00:13:00;9.13;;;6.70;;
8482;SDS011;4278;42.668;23.312;2022-09-27T00:15:27;9.47;;;6.93;;
8482;SDS011;4278;42.668;23.312;2022-09-27T00:17:55;8.60;;;6.43;;
8482;SDS011;4278;42.668;23.312;2022-09-27T00:20:22;11.03;;;6.97;;
8482;SDS011;4278;42.668;23.312;2022-09-27T00:22:50;9.63;;;6.50;;
8482;SDS011;4278;42.668;23.312;2022-09-27T00:25:17;9.67;;;6.37;;
8482;SDS011;4278;42.668;23.312;2022-09-27T00:27:44;10.03;;;6.03;;
8482;SDS011;4278;42.668;23.312;2022-09-27T00:30:11;10.77;;;7.47;;
8482;SDS011;4278;42.668;23.312;2022-09-27T00:32:38;10.07;;;6.70;;
8482;SDS011;4278;42.668;23.312;2022-09-27T00:35:07;10.43;;;6.70;;
8482;SDS011;4278;42.668;23.312;2022-09-27T00:37:34;9.73;;;6.77;;
8482;SDS011;4278;42.668;23.312;2022-09-27T00:40:01;11.47;;;7.70;;
8482;SDS011;4278;42.668;23.312;2022-09-27T00:42:28;9.33;;;6.73;;
8482;SDS011;4278;42.668;23.312;2022-09-27T00:45:05;11.33;;;7.43;;
8482;SDS011;4278;42.668;23.312;2022-09-27T00:47:40;11.27;;;6.93;;
8482;SDS011;4278;42.668;23.312;2022-09-27T00:50:24;10.07;;;7.03;;
8482;SDS011;4278;42.668;23.312;2022-09-27T00:52:59;11.33;;;7.63;;
8482;SDS011;4278;42.668;23.312;2022-09-27T00:55:36;11.97;;;6.87;;
8482;SDS011;4278;42.668;23.312;2022-09-27T00:58:07;14.17;;;7.23;;
8482;SDS011;4278;42.668;23.312;2022-09-27T01:00:35;10.67;;;7.20;;
8482;SDS011;4278;42.668;23.312;2022-09-27T01:03:07;10.37;;;7.30;;
8482;SDS011;4278;42.668;23.312;2022-09-27T01:05:39;9.93;;;7.13;;
8482;SDS011;4278;42.668;23.312;2022-09-27T01:08:07;9.87;;;8.17;;
8482;SDS011;4278;42.668;23.312;2022-09-27T01:10:35;11.27;;;7.27;;
8482;SDS011;4278;42.668;23.312;2022-09-27T01:13:09;10.00;;;7.60;;
8482;SDS011;4278;42.668;23.312;2022-09-27T01:15:46;12.50;;;8.10;;
8482;SDS011;4278;42.668;23.312;2022-09-27T01:18:25;12.00;;;7.37;;
8482;SDS011;4278;42.668;23.312;2022-09-27T01:21:17;12.60;;;8.33;;
8482;SDS011;4278;42.668;23.312;2022-09-27T01:24:05;10.87;;;7.37;;
8482;SDS011;4278;42.668;23.312;2022-09-27T01:29:44;11.47;;;8.13;;
8482;SDS011;4278;42.668;23.312;2022-09-27T01:32:26;12.93;;;7.87;;
8482;SDS011;4278;42.668;23.312;2022-09-27T01:35:01;11.97;;;7.57;;
8482;SDS011;4278;42.668;23.312;2022-09-27T01:37:34;12.20;;;8.27;;
8482;SDS011;4278;42.668;23.312;2022-09-27T01:40:07;13.30;;;8.27;;
8482;SDS011;4278;42.668;23.312;2022-09-27T01:42:38;11.47;;;8.10;;
8482;SDS011;4278;42.668;23.312;2022-09-27T01:45:12;11.27;;;7.33;;
8482;SDS011;4278;42.668;23.312;2022-09-27T01:47:46;13.57;;;7.97;;
8482;SDS011;4278;42.668;23.312;2022-09-27T01:50:18;13.00;;;8.37;;
8482;SDS011;4278;42.668;23.312;2022-09-27T01:52:51;14.03;;;8.00;;
8482;SDS011;4278;42.668;23.312;2022-09-27T01:55:22;10.63;;;7.83;;
8482;SDS011;4278;42.668;23.312;2022-09-27T01:57:55;11.30;;;7.93;;
8482;SDS011;4278;42.668;23.312;2022-09-27T02:00:28;11.83;;;8.03;;
8482;SDS011;4278;42.668;23.312;2022-09-27T02:02:57;11.60;;;8.17;;
8482;SDS011;4278;42.668;23.312;2022-09-27T02:05:30;9.10;;;7.53;;
8482;SDS011;4278;42.668;23.312;2022-09-27T02:08:01;12.07;;;7.40;;
8482;SDS011;4278;42.668;23.312;2022-09-27T02:10:34;10.30;;;7.67;;
8482;SDS011;4278;42.668;23.312;2022-09-27T02:13:09;10.87;;;8.30;;
8482;SDS011;4278;42.668;23.312;2022-09-27T02:15:44;9.63;;;7.30;;
8482;SDS011;4278;42.668;23.312;2022-09-27T02:18:21;11.97;;;7.23;;
8482;SDS011;4278;42.668;23.312;2022-09-27T02:20:54;10.10;;;7.17;;
8482;SDS011;4278;42.668;23.312;2022-09-27T02:23:25;10.97;;;7.03;;
8482;SDS011;4278;42.668;23.312;2022-09-27T02:26:00;11.90;;;8.20;;
8482;SDS011;4278;42.668;23.312;2022-09-27T02:28:34;11.30;;;7.47;;
8482;SDS011;4278;42.668;23.312;2022-09-27T02:31:06;11.00;;;7.83;;
8482;SDS011;4278;42.668;23.312;2022-09-27T02:33:35;11.57;;;7.13;;
8482;SDS011;4278;42.668;23.312;2022-09-27T02:36:06;11.33;;;7.60;;
8482;SDS011;4278;42.668;23.312;2022-09-27T02:38:33;11.53;;;8.27;;
8482;SDS011;4278;42.668;23.312;2022-09-27T02:41:00;12.20;;;7.23;;
8482;SDS011;4278;42.668;23.312;2022-09-27T02:43:29;9.27;;;7.37;;
8482;SDS011;4278;42.668;23.312;2022-09-27T02:46:02;12.03;;;7.50;;
8482;SDS011;4278;42.668;23.312;2022-09-27T02:48:43;10.10;;;7.40;;
8482;SDS011;4278;42.668;23.312;2022-09-27T02:51:25;10.87;;;7.80;;
8482;SDS011;4278;42.668;23.312;2022-09-27T02:54:06;11.27;;;7.47;;
8482;SDS011;4278;42.668;23.312;2022-09-27T02:56:42;9.20;;;7.17;;
8482;SDS011;4278;42.668;23.312;2022-09-27T02:59:19;11.30;;;7.50;;
8482;SDS011;4278;42.668;23.312;2022-09-27T03:01:59;14.23;;;7.47;;
8482;SDS011;4278;42.668;23.312;2022-09-27T03:04:35;11.67;;;7.57;;
8482;SDS011;4278;42.668;23.312;2022-09-27T03:07:09;10.40;;;7.87;;
8482;SDS011;4278;42.668;23.312;2022-09-27T03:09:40;12.07;;;7.80;;
8482;SDS011;4278;42.668;23.312;2022-09-27T03:12:08;10.20;;;7.67;;
8482;SDS011;4278;42.668;23.312;2022-09-27T03:14:35;10.90;;;7.63;;
8482;SDS011;4278;42.668;23.312;2022-09-27T03:17:02;14.43;;;8.67;;
8482;SDS011;4278;42.668;23.312;2022-09-27T03:19:29;10.47;;;8.00;;
8482;SDS011;4278;42.668;23.312;2022-09-27T03:21:57;12.73;;;9.17;;
8482;SDS011;4278;42.668;23.312;2022-09-27T03:24:23;12.77;;;8.77;;
8482;SDS011;4278;42.668;23.312;2022-09-27T03:26:50;10.80;;;8.33;;
8482;SDS011;4278;42.668;23.312;2022-09-27T03:29:17;10.47;;;7.80;;
8482;SDS011;4278;42.668;23.312;2022-09-27T03:31:44;10.93;;;8.10;;
8482;SDS011;4278;42.668;23.312;2022-09-27T03:34:11;13.23;;;8.40;;
8482;SDS011;4278;42.668;23.312;2022-09-27T03:36:38;12.97;;;8.50;;
8482;SDS011;4278;42.668;23.312;2022-09-27T03:39:06;11.40;;;8.60;;
8482;SDS011;4278;42.668;23.312;2022-09-27T03:41:35;12.40;;;8.73;;
8482;SDS011;4278;42.668;23.312;2022-09-27T03:44:10;12.63;;;8.60;;
8482;SDS011;4278;42.668;23.312;2022-09-27T03:46:36;11.20;;;9.33;;
8482;SDS011;4278;42.668;23.312;2022-09-27T03:49:03;14.33;;;8.13;;
8482;SDS011;4278;42.668;23.312;2022-09-27T03:51:30;11.77;;;8.47;;
8482;SDS011;4278;42.668;23.312;2022-09-27T03:53:57;12.60;;;9.33;;
8482;SDS011;4278;42.668;23.312;2022-09-27T03:56:25;11.47;;;8.80;;
8482;SDS011;4278;42.668;23.312;2022-09-27T03:58:52;12.10;;;9.07;;
8482;SDS011;4278;42.668;23.312;2022-09-27T04:01:19;14.77;;;9.07;;
8482;SDS011;4278;42.668;23.312;2022-09-27T04:03:46;15.07;;;9.80;;
8482;SDS011;4278;42.668;23.312;2022-09-27T04:06:14;14.73;;;9.80;;
8482;SDS011;4278;42.668;23.312;2022-09-27T04:08:42;13.33;;;9.37;;
8482;SDS011;4278;42.668;23.312;2022-09-27T04:11:09;13.83;;;10.03;;
8482;SDS011;4278;42.668;23.312;2022-09-27T04:13:37;13.00;;;10.30;;
8482;SDS011;4278;42.668;23.312;2022-09-27T04:16:04;15.00;;;10.53;;
8482;SDS011;4278;42.668;23.312;2022-09-27T04:18:41;16.80;;;10.43;;
8482;SDS011;4278;42.668;23.312;2022-09-27T04:21:08;15.20;;;10.93;;
8482;SDS011;4278;42.668;23.312;2022-09-27T04:23:35;17.00;;;10.40;;
8482;SDS011;4278;42.668;23.312;2022-09-27T04:26:02;14.67;;;10.23;;
8482;SDS011;4278;42.668;23.312;2022-09-27T04:28:29;14.37;;;9.97;;
8482;SDS011;4278;42.668;23.312;2022-09-27T04:31:00;16.10;;;11.00;;
8482;SDS011;4278;42.668;23.312;2022-09-27T04:33:27;15.10;;;10.63;;
8482;SDS011;4278;42.668;23.312;2022-09-27T04:35:54;15.63;;;11.70;;
8482;SDS011;4278;42.668;23.312;2022-09-27T04:38:38;16.70;;;11.80;;
8482;SDS011;4278;42.668;23.312;2022-09-27T04:41:05;15.60;;;11.13;;
8482;SDS011;4278;42.668;23.312;2022-09-27T04:43:32;16.83;;;12.40;;
8482;SDS011;4278;42.668;23.312;2022-09-27T04:46:00;18.80;;;11.30;;
8482;SDS011;4278;42.668;23.312;2022-09-27T04:48:27;18.27;;;11.53;;
8482;SDS011;4278;42.668;23.312;2022-09-27T04:50:55;16.87;;;12.20;;
8482;SDS011;4278;42.668;23.312;2022-09-27T04:53:23;16.90;;;12.77;;
8482;SDS011;4278;42.668;23.312;2022-09-27T04:55:51;18.43;;;12.00;;
8482;SDS011;4278;42.668;23.312;2022-09-27T04:58:19;20.57;;;12.33;;
8482;SDS011;4278;42.668;23.312;2022-09-27T05:00:45;17.87;;;11.40;;
8482;SDS011;4278;42.668;23.312;2022-09-27T05:03:14;15.53;;;11.43;;
8482;SDS011;4278;42.668;23.312;2022-09-27T05:05:41;16.60;;;11.37;;
8482;SDS011;4278;42.668;23.312;2022-09-27T05:08:07;16.00;;;10.77;;
8482;SDS011;4278;42.668;23.312;2022-09-27T05:10:34;18.10;;;12.57;;
8482;SDS011;4278;42.668;23.312;2022-09-27T05:13:01;17.03;;;10.83;;
8482;SDS011;4278;42.668;23.312;2022-09-27T05:15:29;19.43;;;11.07;;
8482;SDS011;4278;42.668;23.312;2022-09-27T05:17:55;17.23;;;11.93;;
8482;SDS011;4278;42.668;23.312;2022-09-27T05:20:24;17.53;;;11.40;;
8482;SDS011;4278;42.668;23.312;2022-09-27T05:22:51;15.97;;;11.23;;
8482;SDS011;4278;42.668;23.312;2022-09-27T05:25:18;13.23;;;9.67;;
8482;SDS011;4278;42.668;23.312;2022-09-27T05:27:45;15.63;;;10.87;;
8482;SDS011;4278;42.668;23.312;2022-09-27T05:30:12;16.23;;;9.97;;
8482;SDS011;4278;42.668;23.312;2022-09-27T05:32:41;18.83;;;10.63;;
8482;SDS011;4278;42.668;23.312;2022-09-27T05:35:09;15.60;;;10.03;;
8482;SDS011;4278;42.668;23.312;2022-09-27T05:37:37;15.63;;;10.30;;
8482;SDS011;4278;42.668;23.312;2022-09-27T05:40:05;14.67;;;10.43;;
8482;SDS011;4278;42.668;23.312;2022-09-27T05:42:33;14.33;;;10.30;;
8482;SDS011;4278;42.668;23.312;2022-09-27T05:45:03;15.87;;;11.30;;
8482;SDS011;4278;42.668;23.312;2022-09-27T05:47:31;17.50;;;11.27;;
8482;SDS011;4278;42.668;23.312;2022-09-27T05:49:58;15.23;;;11.40;;
8482;SDS011;4278;42.668;23.312;2022-09-27T05:52:24;19.70;;;10.80;;
8482;SDS011;4278;42.668;23.312;2022-09-27T05:54:53;17.87;;;11.17;;
8482;SDS011;4278;42.668;23.312;2022-09-27T05:57:20;19.87;;;12.23;;
8482;SDS011;4278;42.668;23.312;2022-09-27T05:59:47;23.80;;;14.93;;
8482;SDS011;4278;42.668;23.312;2022-09-27T06:02:13;19.23;;;12.33;;
8482;SDS011;4278;42.668;23.312;2022-09-27T06:04:40;19.10;;;12.00;;
8482;SDS011;4278;42.668;23.312;2022-09-27T06:07:07;18.90;;;13.17;;
8482;SDS011;4278;42.668;23.312;2022-09-27T06:09:34;22.70;;;12.47;;
8482;SDS011;4278;42.668;23.312;2022-09-27T06:12:02;20.63;;;13.83;;
8482;SDS011;4278;42.668;23.312;2022-09-27T06:14:29;17.33;;;13.47;;
8482;SDS011;4278;42.668;23.312;2022-09-27T06:16:59;17.03;;;12.83;;
8482;SDS011;4278;42.668;23.312;2022-09-27T06:19:26;19.87;;;13.43;;
8482;SDS011;4278;42.668;23.312;2022-09-27T06:21:52;18.17;;;13.43;;
8482;SDS011;4278;42.668;23.312;2022-09-27T06:24:19;18.57;;;13.97;;
8482;SDS011;4278;42.668;23.312;2022-09-27T06:26:46;18.10;;;13.50;;
8482;SDS011;4278;42.668;23.312;2022-09-27T06:29:14;22.70;;;13.90;;
8482;SDS011;4278;42.668;23.312;2022-09-27T06:31:41;26.97;;;15.57;;
8482;SDS011;4278;42.668;23.312;2022-09-27T06:34:08;19.17;;;13.33;;
8482;SDS011;4278;42.668;23.312;2022-09-27T06:36:35;17.47;;;12.73;;
8482;SDS011;4278;42.668;23.312;2022-09-27T06:39:02;19.27;;;13.10;;
8482;SDS011;4278;42.668;23.312;2022-09-27T06:41:29;22.30;;;12.33;;
8482;SDS011;4278;42.668;23.312;2022-09-27T06:43:55;19.57;;;12.90;;
8482;SDS011;4278;42.668;23.312;2022-09-27T06:46:24;17.37;;;12.03;;
8482;SDS011;4278;42.668;23.312;2022-09-27T06:48:51;18.13;;;11.90;;
8482;SDS011;4278;42.668;23.312;2022-09-27T06:51:18;17.20;;;11.00;;
8482;SDS011;4278;42.668;23.312;2022-09-27T06:53:45;18.50;;;12.13;;
8482;SDS011;4278;42.668;23.312;2022-09-27T06:56:12;16.33;;;12.27;;
8482;SDS011;4278;42.668;23.312;2022-09-27T06:58:38;21.33;;;13.83;;
8482;SDS011;4278;42.668;23.312;2022-09-27T07:01:27;18.67;;;13.17;;
8482;SDS011;4278;42.668;23.312;2022-09-27T07:03:54;17.27;;;12.50;;
8482;SDS011;4278;42.668;23.312;2022-09-27T07:06:23;18.10;;;12.57;;
8482;SDS011;4278;42.668;23.312;2022-09-27T07:08:51;22.57;;;14.67;;
8482;SDS011;4278;42.668;23.312;2022-09-27T07:11:18;17.63;;;12.80;;
8482;SDS011;4278;42.668;23.312;2022-09-27T07:13:46;19.20;;;14.37;;
8482;SDS011;4278;42.668;23.312;2022-09-27T07:16:14;20.60;;;13.80;;
8482;SDS011;4278;42.668;23.312;2022-09-27T07:18:42;22.13;;;14.67;;
8482;SDS011;4278;42.668;23.312;2022-09-27T07:21:09;21.73;;;13.77;;
8482;SDS011;4278;42.668;23.312;2022-09-27T07:23:36;23.43;;;15.40;;
8482;SDS011;4278;42.668;23.312;2022-09-27T07:26:03;22.03;;;14.30;;
8482;SDS011;4278;42.668;23.312;2022-09-27T07:28:34;22.97;;;14.80;;
8482;SDS011;4278;42.668;23.312;2022-09-27T07:31:02;23.03;;;14.43;;
8482;SDS011;4278;42.668;23.312;2022-09-27T07:33:30;20.43;;;15.40;;
8482;SDS011;4278;42.668;23.312;2022-09-27T07:35:59;24.40;;;15.43;;
8482;SDS011;4278;42.668;23.312;2022-09-27T07:38:26;23.93;;;15.23;;
8482;SDS011;4278;42.668;23.312;2022-09-27T07:40:53;21.83;;;14.67;;
8482;SDS011;4278;42.668;23.312;2022-09-27T07:43:20;19.97;;;15.13;;
8482;SDS011;4278;42.668;23.312;2022-09-27T07:45:47;21.63;;;13.87;;
8482;SDS011;4278;42.668;23.312;2022-09-27T07:48:15;18.23;;;13.80;;
8482;SDS011;4278;42.668;23.312;2022-09-27T07:50:42;21.60;;;13.17;;
8482;SDS011;4278;42.668;23.312;2022-09-27T07:53:10;23.00;;;14.47;;
8482;SDS011;4278;42.668;23.312;2022-09-27T07:55:38;20.10;;;13.57;;
8482;SDS011;4278;42.668;23.312;2022-09-27T07:58:07;19.77;;;13.33;;
8482;SDS011;4278;42.668;23.312;2022-09-27T08:00:36;21.17;;;14.23;;
8482;SDS011;4278;42.668;23.312;2022-09-27T08:03:04;22.27;;;15.43;;
8482;SDS011;4278;42.668;23.312;2022-09-27T08:05:33;23.03;;;16.07;;
8482;SDS011;4278;42.668;23.312;2022-09-27T08:08:00;21.73;;;16.23;;
8482;SDS011;4278;42.668;23.312;2022-09-27T08:10:29;23.47;;;16.30;;
8482;SDS011;4278;42.668;23.312;2022-09-27T08:12:56;21.43;;;15.87;;
8482;SDS011;4278;42.668;23.312;2022-09-27T08:15:23;22.10;;;15.97;;
8482;SDS011;4278;42.668;23.312;2022-09-27T08:17:52;26.57;;;16.87;;
8482;SDS011;4278;42.668;23.312;2022-09-27T08:20:19;24.17;;;16.33;;
8482;SDS011;4278;42.668;23.312;2022-09-27T08:22:46;20.57;;;14.73;;
8482;SDS011;4278;42.668;23.312;2022-09-27T08:25:13;21.60;;;14.23;;
8482;SDS011;4278;42.668;23.312;2022-09-27T08:27:41;18.87;;;13.53;;
8482;SDS011;4278;42.668;23.312;2022-09-27T08:30:08;20.17;;;13.53;;
8482;SDS011;4278;42.668;23.312;2022-09-27T08:32:36;22.03;;;14.97;;
8482;SDS011;4278;42.668;23.312;2022-09-27T08:35:03;20.90;;;13.77;;
8482;SDS011;4278;42.668;23.312;2022-09-27T08:37:32;21.37;;;15.00;;
8482;SDS011;4278;42.668;23.312;2022-09-27T08:39:59;20.27;;;15.43;;
8482;SDS011;4278;42.668;23.312;2022-09-27T08:42:28;17.30;;;13.43;;
8482;SDS011;4278;42.668;23.312;2022-09-27T08:45:08;21.03;;;14.37;;
8482;SDS011;4278;42.668;23.312;2022-09-27T08:47:42;21.63;;;14.57;;
8482;SDS011;4278;42.668;23.312;2022-09-27T08:50:17;19.33;;;13.97;;
8482;SDS011;4278;42.668;23.312;2022-09-27T08:52:51;18.10;;;12.87;;
8482;SDS011;4278;42.668;23.312;2022-09-27T08:55:30;21.70;;;13.80;;
8482;SDS011;4278;42.668;23.312;2022-09-27T08:58:01;21.70;;;13.90;;
8482;SDS011;4278;42.668;23.312;2022-09-27T09:00:37;18.57;;;12.90;;
8482;SDS011;4278;42.668;23.312;2022-09-27T09:03:04;20.00;;;13.23;;
8482;SDS011;4278;42.668;23.312;2022-09-27T09:05:34;21.10;;;14.80;;
8482;SDS011;4278;42.668;23.312;2022-09-27T09:08:11;20.10;;;14.87;;
8482;SDS011;4278;42.668;23.312;2022-09-27T09:10:50;18.02;;;13.32;;
8482;SDS011;4278;42.668;23.312;2022-09-27T09:13:48;16.25;;;11.57;;
8482;SDS011;4278;42.668;23.312;2022-09-27T09:16:32;17.33;;;12.88;;
8482;SDS011;4278;42.668;23.312;2022-09-27T09:19:16;18.17;;;12.05;;
8482;SDS011;4278;42.668;23.312;2022-09-27T09:21:55;16.13;;;10.93;;
8482;SDS011;4278;42.668;23.312;2022-09-27T09:24:36;14.63;;;12.13;;
8482;SDS011;4278;42.668;23.312;2022-09-27T09:27:28;15.10;;;11.40;;
8482;SDS011;4278;42.668;23.312;2022-09-27T09:30:06;21.50;;;9.98;;
8482;SDS011;4278;42.668;23.312;2022-09-27T09:32:48;13.02;;;8.50;;
8482;SDS011;4278;42.668;23.312;2022-09-27T09:35:29;11.55;;;7.85;;
8482;SDS011;4278;42.668;23.312;2022-09-27T09:38:02;10.25;;;7.70;;
8482;SDS011;4278;42.668;23.312;2022-09-27T09:40:34;10.07;;;7.43;;
8482;SDS011;4278;42.668;23.312;2022-09-27T09:43:09;8.48;;;7.25;;
8482;SDS011;4278;42.668;23.312;2022-09-27T09:45:42;11.30;;;7.65;;
8482;SDS011;4278;42.668;23.312;2022-09-27T09:48:15;13.00;;;7.10;;
8482;SDS011;4278;42.668;23.312;2022-09-27T09:50:48;12.00;;;7.80;;
8482;SDS011;4278;42.668;23.312;2022-09-27T09:53:19;9.45;;;7.50;;
8482;SDS011;4278;42.668;23.312;2022-09-27T09:55:50;14.10;;;8.75;;
8482;SDS011;4278;42.668;23.312;2022-09-27T09:58:22;11.32;;;8.50;;
8482;SDS011;4278;42.668;23.312;2022-09-27T10:00:54;13.35;;;8.52;;
8482;SDS011;4278;42.668;23.312;2022-09-27T10:03:27;13.52;;;9.52;;
8482;SDS011;4278;42.668;23.312;2022-09-27T10:05:54;13.73;;;8.90;;
8482;SDS011;4278;42.668;23.312;2022-09-27T10:08:21;11.93;;;8.52;;
8482;SDS011;4278;42.668;23.312;2022-09-27T10:10:49;13.93;;;9.38;;
8482;SDS011;4278;42.668;23.312;2022-09-27T10:13:17;13.38;;;9.02;;
8482;SDS011;4278;42.668;23.312;2022-09-27T10:15:47;12.23;;;9.48;;
8482;SDS011;4278;42.668;23.312;2022-09-27T10:18:20;15.23;;;9.95;;
8482;SDS011;4278;42.668;23.312;2022-09-27T10:20:49;13.23;;;9.15;;
8482;SDS011;4278;42.668;23.312;2022-09-27T10:23:21;9.63;;;7.82;;
8482;SDS011;4278;42.668;23.312;2022-09-27T10:25:50;10.68;;;8.05;;
8482;SDS011;4278;42.668;23.312;2022-09-27T10:28:26;9.25;;;7.47;;
8482;SDS011;4278;42.668;23.312;2022-09-27T10:30:57;9.52;;;7.53;;
8482;SDS011;4278;42.668;23.312;2022-09-27T10:33:27;9.15;;;7.10;;
8482;SDS011;4278;42.668;23.312;2022-09-27T10:35:57;9.23;;;7.00;;
8482;SDS011;4278;42.668;23.312;2022-09-27T10:38:26;8.98;;;7.50;;
8482;SDS011;4278;42.668;23.312;2022-09-27T10:40:55;10.20;;;8.82;;
8482;SDS011;4278;42.668;23.312;2022-09-27T10:43:27;10.90;;;7.47;;
8482;SDS011;4278;42.668;23.312;2022-09-27T10:46:01;12.35;;;8.07;;
8482;SDS011;4278;42.668;23.312;2022-09-27T10:48:32;9.35;;;7.75;;
8482;SDS011;4278;42.668;23.312;2022-09-27T10:51:00;14.98;;;9.23;;
8482;SDS011;4278;42.668;23.312;2022-09-27T10:53:29;10.30;;;7.50;;
8482;SDS011;4278;42.668;23.312;2022-09-27T10:55:57;9.98;;;7.32;;
8482;SDS011;4278;42.668;23.312;2022-09-27T10:58:25;10.52;;;6.53;;
8482;SDS011;4278;42.668;23.312;2022-09-27T11:00:55;7.75;;;6.32;;
8482;SDS011;4278;42.668;23.312;2022-09-27T11:03:25;8.80;;;6.15;;
8482;SDS011;4278;42.668;23.312;2022-09-27T11:05:54;7.72;;;5.72;;
8482;SDS011;4278;42.668;23.312;2022-09-27T11:08:27;6.93;;;5.72;;
8482;SDS011;4278;42.668;23.312;2022-09-27T11:11:04;6.93;;;6.13;;
8482;SDS011;4278;42.668;23.312;2022-09-27T11:13:33;8.77;;;5.50;;
8482;SDS011;4278;42.668;23.312;2022-09-27T11:16:22;8.40;;;6.22;;
8482;SDS011;4278;42.668;23.312;2022-09-27T11:19:04;11.02;;;6.07;;
8482;SDS011;4278;42.668;23.312;2022-09-27T11:21:41;6.88;;;5.65;;
8482;SDS011;4278;42.668;23.312;2022-09-27T11:24:22;8.40;;;5.78;;
8482;SDS011;4278;42.668;23.312;2022-09-27T11:27:02;6.95;;;4.95;;
8482;SDS011;4278;42.668;23.312;2022-09-27T11:29:44;6.03;;;4.88;;
8482;SDS011;4278;42.668;23.312;2022-09-27T11:32:24;7.20;;;5.00;;
8482;SDS011;4278;42.668;23.312;2022-09-27T11:35:03;5.45;;;4.75;;
8482;SDS011;4278;42.668;23.312;2022-09-27T11:37:47;6.97;;;5.20;;
8482;SDS011;4278;42.668;23.312;2022-09-27T11:40:28;7.55;;;4.40;;
8482;SDS011;4278;42.668;23.312;2022-09-27T11:43:08;4.95;;;3.95;;
8482;SDS011;4278;42.668;23.312;2022-09-27T11:45:49;6.45;;;4.43;;
8482;SDS011;4278;42.668;23.312;2022-09-27T11:48:36;5.15;;;4.22;;
8482;SDS011;4278;42.668;23.312;2022-09-27T11:51:26;4.80;;;3.88;;
8482;SDS011;4278;42.668;23.312;2022-09-27T11:54:15;7.90;;;3.90;;
8482;SDS011;4278;42.668;23.312;2022-09-27T11:56:58;5.38;;;3.97;;
8482;SDS011;4278;42.668;23.312;2022-09-27T11:59:40;5.72;;;3.38;;
8482;SDS011;4278;42.668;23.312;2022-09-27T12:02:23;6.05;;;3.80;;
8482;SDS011;4278;42.668;23.312;2022-09-27T12:05:05;4.35;;;3.28;;
8482;SDS011;4278;42.668;23.312;2022-09-27T12:07:44;5.00;;;3.97;;
8482;SDS011;4278;42.668;23.312;2022-09-27T12:10:22;4.25;;;3.50;;
8482;SDS011;4278;42.668;23.312;2022-09-27T12:12:50;4.50;;;3.70;;
8482;SDS011;4278;42.668;23.312;2022-09-27T12:15:21;5.35;;;3.80;;
8482;SDS011;4278;42.668;23.312;2022-09-27T12:17:51;6.78;;;4.32;;
8482;SDS011;4278;42.668;23.312;2022-09-27T12:20:22;4.70;;;3.83;;
8482;SDS011;4278;42.668;23.312;2022-09-27T12:22:53;7.28;;;4.18;;
8482;SDS011;4278;42.668;23.312;2022-09-27T12:25:22;6.78;;;4.15;;
8482;SDS011;4278;42.668;23.312;2022-09-27T12:27:53;7.82;;;4.85;;
8482;SDS011;4278;42.668;23.312;2022-09-27T12:30:26;5.53;;;3.83;;
8482;SDS011;4278;42.668;23.312;2022-09-27T12:32:56;4.68;;;3.75;;
8482;SDS011;4278;42.668;23.312;2022-09-27T12:35:33;4.75;;;3.15;;
8482;SDS011;4278;42.668;23.312;2022-09-27T12:38:09;6.05;;;3.20;;
8482;SDS011;4278;42.668;23.312;2022-09-27T12:40:39;3.47;;;3.17;;
8482;SDS011;4278;42.668;23.312;2022-09-27T12:43:10;4.35;;;3.95;;
8482;SDS011;4278;42.668;23.312;2022-09-27T12:45:44;5.30;;;4.68;;
8482;SDS011;4278;42.668;23.312;2022-09-27T12:48:21;3.75;;;3.35;;
8482;SDS011;4278;42.668;23.312;2022-09-27T12:51:02;4.55;;;3.90;;
8482;SDS011;4278;42.668;23.312;2022-09-27T12:53:36;5.32;;;4.60;;
8482;SDS011;4278;42.668;23.312;2022-09-27T12:56:19;4.15;;;3.65;;
8482;SDS011;4278;42.668;23.312;2022-09-27T12:59:06;5.07;;;4.47;;
8482;SDS011;4278;42.668;23.312;2022-09-27T13:01:51;6.35;;;5.45;;
8482;SDS011;4278;42.668;23.312;2022-09-27T13:04:44;6.50;;;4.07;;
8482;SDS011;4278;42.668;23.312;2022-09-27T13:07:26;5.13;;;4.63;;
8482;SDS011;4278;42.668;23.312;2022-09-27T13:12:59;2.42;;;2.17;;
8482;SDS011;4278;42.668;23.312;2022-09-27T13:15:30;2.60;;;1.95;;
8482;SDS011;4278;42.668;23.312;2022-09-27T13:17:58;2.90;;;2.50;;
8482;SDS011;4278;42.668;23.312;2022-09-27T13:26:23;2.28;;;1.85;;
8482;SDS011;4278;42.668;23.312;2022-09-27T13:29:19;1.80;;;1.70;;
8482;SDS011;4278;42.668;23.312;2022-09-27T13:32:02;2.47;;;2.08;;
8482;SDS011;4278;42.668;23.312;2022-09-27T13:34:41;2.28;;;1.35;;
8482;SDS011;4278;42.668;23.312;2022-09-27T13:37:26;5.43;;;1.60;;
8482;SDS011;4278;42.668;23.312;2022-09-27T13:40:19;2.50;;;1.60;;
8482;SDS011;4278;42.668;23.312;2022-09-27T13:42:51;3.38;;;1.52;;
8482;SDS011;4278;42.668;23.312;2022-09-27T13:45:30;1.98;;;1.52;;
8482;SDS011;4278;42.668;23.312;2022-09-27T13:48:07;2.60;;;1.77;;
8482;SDS011;4278;42.668;23.312;2022-09-27T13:50:44;1.67;;;1.38;;
8482;SDS011;4278;42.668;23.312;2022-09-27T13:53:19;1.48;;;1.35;;
8482;SDS011;4278;42.668;23.312;2022-09-27T13:55:53;2.60;;;1.75;;
8482;SDS011;4278;42.668;23.312;2022-09-27T13:58:26;2.83;;;1.40;;
8482;SDS011;4278;42.668;23.312;2022-09-27T14:01:14;2.40;;;1.50;;
8482;SDS011;4278;42.668;23.312;2022-09-27T14:03:49;2.85;;;2.50;;
8482;SDS011;4278;42.668;23.312;2022-09-27T14:06:19;1.40;;;1.30;;
8482;SDS011;4278;42.668;23.312;2022-09-27T14:08:50;2.90;;;1.60;;
8482;SDS011;4278;42.668;23.312;2022-09-27T14:11:22;4.70;;;1.70;;
8482;SDS011;4278;42.668;23.312;2022-09-27T14:13:53;3.28;;;1.52;;
8482;SDS011;4278;42.668;23.312;2022-09-27T14:16:21;1.30;;;1.20;;
8482;SDS011;4278;42.668;23.312;2022-09-27T14:18:52;3.78;;;1.65;;
8482;SDS011;4278;42.668;23.312;2022-09-27T14:21:26;2.53;;;1.60;;
8482;SDS011;4278;42.668;23.312;2022-09-27T14:26:49;2.03;;;1.45;;
8482;SDS011;4278;42.668;23.312;2022-09-27T14:29:30;1.55;;;1.27;;
8482;SDS011;4278;42.668;23.312;2022-09-27T14:32:04;4.18;;;1.67;;
8482;SDS011;4278;42.668;23.312;2022-09-27T14:34:34;3.95;;;1.60;;
8482;SDS011;4278;42.668;23.312;2022-09-27T14:37:01;3.13;;;1.60;;
8482;SDS011;4278;42.668;23.312;2022-09-27T14:39:51;1.98;;;1.55;;
8482;SDS011;4278;42.668;23.312;2022-09-27T14:42:19;3.70;;;2.80;;
8482;SDS011;4278;42.668;23.312;2022-09-27T14:44:48;3.15;;;2.75;;
8482;SDS011;4278;42.668;23.312;2022-09-27T14:47:17;5.57;;;3.05;;
8482;SDS011;4278;42.668;23.312;2022-09-27T14:49:47;5.20;;;3.15;;
8482;SDS011;4278;42.668;23.312;2022-09-27T14:52:16;3.38;;;3.08;;
8482;SDS011;4278;42.668;23.312;2022-09-27T14:54:54;4.85;;;3.00;;
8482;SDS011;4278;42.668;23.312;2022-09-27T14:57:23;5.60;;;2.97;;
8482;SDS011;4278;42.668;23.312;2022-09-27T14:59:51;6.93;;;3.35;;
8482;SDS011;4278;42.668;23.312;2022-09-27T15:02:19;8.27;;;3.75;;
8482;SDS011;4278;42.668;23.312;2022-09-27T15:04:50;6.00;;;3.70;;
8482;SDS011;4278;42.668;23.312;2022-09-27T15:07:18;5.45;;;3.45;;
8482;SDS011;4278;42.668;23.312;2022-09-27T15:09:46;3.45;;;2.97;;
8482;SDS011;4278;42.668;23.312;2022-09-27T15:12:17;4.75;;;2.58;;
8482;SDS011;4278;42.668;23.312;2022-09-27T15:14:50;8.60;;;2.00;;
8482;SDS011;4278;42.668;23.312;2022-09-27T15:17:19;3.78;;;2.00;;
8482;SDS011;4278;42.668;23.312;2022-09-27T15:19:58;2.40;;;1.70;;
8482;SDS011;4278;42.668;23.312;2022-09-27T15:22:34;3.37;;;2.03;;
8482;SDS011;4278;42.668;23.312;2022-09-27T15:25:17;1.92;;;1.73;;
8482;SDS011;4278;42.668;23.312;2022-09-27T15:27:46;4.37;;;2.07;;
8482;SDS011;4278;42.668;23.312;2022-09-27T15:30:16;3.77;;;1.63;;